sensor_id;sensor_type;location;lat;lon;timestamp;P1;durP1;ratioP1;P2;durP2;ratioP2
22024;SDS011;11176;51.448;6.650;2022-12-29T00:01:54;1.15;;;0.65;;
22024;SDS011;11176;51.448;6.650;2022-12-29T00:04:21;1.10;;;0.60;;
22024;SDS011;11176;51.448;6.650;2022-12-29T00:06:48;1.50;;;0.70;;
22024;SDS011;11176;51.448;6.650;2022-12-29T00:09:15;2.40;;;0.93;;
22024;SDS011;11176;51.448;6.650;2022-12-29T00:11:42;1.15;;;0.77;;
22024;SDS011;11176;51.448;6.650;2022-12-29T00:14:09;1.98;;;0.70;;
22024;SDS011;11176;51.448;6.650;2022-12-29T00:16:55;2.92;;;0.90;;
22024;SDS011;11176;51.448;6.650;2022-12-29T00:19:22;1.50;;;0.70;;
22024;SDS011;11176;51.448;6.650;2022-12-29T00:22:09;1.65;;;0.60;;
22024;SDS011;11176;51.448;6.650;2022-12-29T00:24:56;1.20;;;0.70;;
22024;SDS011;11176;51.448;6.650;2022-12-29T00:27:31;1.27;;;0.60;;
22024;SDS011;11176;51.448;6.650;2022-12-29T00:30:19;2.00;;;0.80;;
22024;SDS011;11176;51.448;6.650;2022-12-29T00:36:04;1.15;;;0.60;;
22024;SDS011;11176;51.448;6.650;2022-12-29T00:38:32;0.50;;;0.30;;
22024;SDS011;11176;51.448;6.650;2022-12-29T00:41:24;1.40;;;0.60;;
22024;SDS011;11176;51.448;6.650;2022-12-29T00:44:10;1.17;;;0.57;;
22024;SDS011;11176;51.448;6.650;2022-12-29T00:46:40;1.38;;;0.60;;
22024;SDS011;11176;51.448;6.650;2022-12-29T00:49:08;0.77;;;0.50;;
22024;SDS011;11176;51.448;6.650;2022-12-29T00:51:56;0.77;;;0.43;;
22024;SDS011;11176;51.448;6.650;2022-12-29T00:54:32;0.63;;;0.50;;
22024;SDS011;11176;51.448;6.650;2022-12-29T00:57:00;1.17;;;0.60;;
22024;SDS011;11176;51.448;6.650;2022-12-29T00:59:28;0.80;;;0.57;;
22024;SDS011;11176;51.448;6.650;2022-12-29T01:01:55;0.90;;;0.50;;
22024;SDS011;11176;51.448;6.650;2022-12-29T01:04:24;1.67;;;0.40;;
22024;SDS011;11176;51.448;6.650;2022-12-29T01:06:51;0.93;;;0.43;;
22024;SDS011;11176;51.448;6.650;2022-12-29T01:09:18;0.57;;;0.40;;
22024;SDS011;11176;51.448;6.650;2022-12-29T01:12:04;1.42;;;0.50;;
22024;SDS011;11176;51.448;6.650;2022-12-29T01:14:33;1.23;;;0.50;;
22024;SDS011;11176;51.448;6.650;2022-12-29T01:17:01;2.55;;;0.57;;
22024;SDS011;11176;51.448;6.650;2022-12-29T01:19:28;1.38;;;0.47;;
22024;SDS011;11176;51.448;6.650;2022-12-29T01:21:55;0.60;;;0.40;;
22024;SDS011;11176;51.448;6.650;2022-12-29T01:24:21;1.60;;;0.45;;
22024;SDS011;11176;51.448;6.650;2022-12-29T01:26:48;1.48;;;0.70;;
22024;SDS011;11176;51.448;6.650;2022-12-29T01:29:15;1.38;;;0.50;;
22024;SDS011;11176;51.448;6.650;2022-12-29T01:31:44;1.77;;;0.63;;
22024;SDS011;11176;51.448;6.650;2022-12-29T01:34:11;0.60;;;0.40;;
22024;SDS011;11176;51.448;6.650;2022-12-29T01:36:37;0.88;;;0.40;;
22024;SDS011;11176;51.448;6.650;2022-12-29T01:39:05;1.15;;;0.47;;
22024;SDS011;11176;51.448;6.650;2022-12-29T01:41:32;0.98;;;0.55;;
22024;SDS011;11176;51.448;6.650;2022-12-29T01:44:00;1.38;;;0.40;;
22024;SDS011;11176;51.448;6.650;2022-12-29T01:51:29;0.68;;;0.30;;
22024;SDS011;11176;51.448;6.650;2022-12-29T01:54:01;0.52;;;0.30;;
22024;SDS011;11176;51.448;6.650;2022-12-29T01:56:32;1.02;;;0.45;;
22024;SDS011;11176;51.448;6.650;2022-12-29T01:59:01;0.60;;;0.40;;
22024;SDS011;11176;51.448;6.650;2022-12-29T02:03:59;0.82;;;0.43;;
22024;SDS011;11176;51.448;6.650;2022-12-29T02:06:35;0.57;;;0.43;;
22024;SDS011;11176;51.448;6.650;2022-12-29T02:09:07;1.23;;;0.52;;
22024;SDS011;11176;51.448;6.650;2022-12-29T02:11:34;3.03;;;0.50;;
22024;SDS011;11176;51.448;6.650;2022-12-29T02:14:05;2.45;;;0.57;;
22024;SDS011;11176;51.448;6.650;2022-12-29T02:16:58;1.42;;;0.50;;
22024;SDS011;11176;51.448;6.650;2022-12-29T02:22:48;2.63;;;0.68;;
22024;SDS011;11176;51.448;6.650;2022-12-29T02:25:36;4.57;;;0.68;;
22024;SDS011;11176;51.448;6.650;2022-12-29T02:39:20;1.20;;;0.50;;
22024;SDS011;11176;51.448;6.650;2022-12-29T02:42:13;1.48;;;0.80;;
22024;SDS011;11176;51.448;6.650;2022-12-29T02:44:55;2.05;;;0.60;;
22024;SDS011;11176;51.448;6.650;2022-12-29T02:53:00;0.82;;;0.40;;
22024;SDS011;11176;51.448;6.650;2022-12-29T02:55:33;2.92;;;0.60;;
22024;SDS011;11176;51.448;6.650;2022-12-29T02:58:09;1.70;;;0.63;;
22024;SDS011;11176;51.448;6.650;2022-12-29T03:06:41;3.70;;;0.90;;
22024;SDS011;11176;51.448;6.650;2022-12-29T03:15:13;3.97;;;0.95;;
22024;SDS011;11176;51.448;6.650;2022-12-29T03:18:17;3.63;;;0.90;;
22024;SDS011;11176;51.448;6.650;2022-12-29T03:20:52;2.60;;;0.80;;
22024;SDS011;11176;51.448;6.650;2022-12-29T03:23:23;2.97;;;0.68;;
22024;SDS011;11176;51.448;6.650;2022-12-29T03:25:54;2.28;;;0.60;;
22024;SDS011;11176;51.448;6.650;2022-12-29T03:28:25;1.23;;;0.70;;
22024;SDS011;11176;51.448;6.650;2022-12-29T03:30:57;2.20;;;0.60;;
22024;SDS011;11176;51.448;6.650;2022-12-29T03:33:27;3.65;;;1.30;;
22024;SDS011;11176;51.448;6.650;2022-12-29T03:36:01;2.08;;;0.80;;
22024;SDS011;11176;51.448;6.650;2022-12-29T03:38:33;2.60;;;0.77;;
22024;SDS011;11176;51.448;6.650;2022-12-29T03:41:04;2.47;;;0.50;;
22024;SDS011;11176;51.448;6.650;2022-12-29T03:43:35;4.70;;;0.60;;
22024;SDS011;11176;51.448;6.650;2022-12-29T03:46:02;1.80;;;0.50;;
22024;SDS011;11176;51.448;6.650;2022-12-29T03:48:29;1.67;;;0.60;;
22024;SDS011;11176;51.448;6.650;2022-12-29T03:50:55;1.50;;;0.50;;
22024;SDS011;11176;51.448;6.650;2022-12-29T03:53:22;1.15;;;0.50;;
22024;SDS011;11176;51.448;6.650;2022-12-29T03:55:49;1.80;;;0.60;;
22024;SDS011;11176;51.448;6.650;2022-12-29T03:58:15;2.10;;;0.60;;
22024;SDS011;11176;51.448;6.650;2022-12-29T04:00:54;1.15;;;0.50;;
22024;SDS011;11176;51.448;6.650;2022-12-29T04:03:21;1.52;;;0.50;;
22024;SDS011;11176;51.448;6.650;2022-12-29T04:05:49;2.55;;;0.70;;
22024;SDS011;11176;51.448;6.650;2022-12-29T04:08:15;1.83;;;0.52;;
22024;SDS011;11176;51.448;6.650;2022-12-29T04:10:42;2.05;;;0.47;;
22024;SDS011;11176;51.448;6.650;2022-12-29T04:13:08;1.80;;;0.40;;
22024;SDS011;11176;51.448;6.650;2022-12-29T04:15:35;0.60;;;0.40;;
22024;SDS011;11176;51.448;6.650;2022-12-29T04:18:02;0.73;;;0.40;;
22024;SDS011;11176;51.448;6.650;2022-12-29T04:20:28;1.88;;;0.60;;
22024;SDS011;11176;51.448;6.650;2022-12-29T04:23:15;1.40;;;0.30;;
22024;SDS011;11176;51.448;6.650;2022-12-29T04:25:44;1.90;;;0.60;;
22024;SDS011;11176;51.448;6.650;2022-12-29T04:28:14;1.70;;;0.47;;
22024;SDS011;11176;51.448;6.650;2022-12-29T04:31:01;2.67;;;0.43;;
22024;SDS011;11176;51.448;6.650;2022-12-29T04:33:33;1.30;;;0.50;;
22024;SDS011;11176;51.448;6.650;2022-12-29T04:36:00;0.95;;;0.50;;
22024;SDS011;11176;51.448;6.650;2022-12-29T04:38:27;1.08;;;0.40;;
22024;SDS011;11176;51.448;6.650;2022-12-29T04:40:54;1.88;;;0.52;;
22024;SDS011;11176;51.448;6.650;2022-12-29T04:43:22;1.63;;;0.50;;
22024;SDS011;11176;51.448;6.650;2022-12-29T04:46:01;1.20;;;0.50;;
22024;SDS011;11176;51.448;6.650;2022-12-29T04:48:35;2.55;;;0.60;;
22024;SDS011;11176;51.448;6.650;2022-12-29T04:51:20;3.83;;;0.63;;
22024;SDS011;11176;51.448;6.650;2022-12-29T04:53:48;1.92;;;0.60;;
22024;SDS011;11176;51.448;6.650;2022-12-29T04:56:15;2.45;;;0.60;;
22024;SDS011;11176;51.448;6.650;2022-12-29T04:58:41;2.75;;;0.60;;
22024;SDS011;11176;51.448;6.650;2022-12-29T05:01:08;2.25;;;0.85;;
22024;SDS011;11176;51.448;6.650;2022-12-29T05:03:34;1.70;;;0.50;;
22024;SDS011;11176;51.448;6.650;2022-12-29T05:06:01;1.70;;;0.50;;
22024;SDS011;11176;51.448;6.650;2022-12-29T05:08:28;3.60;;;0.63;;
22024;SDS011;11176;51.448;6.650;2022-12-29T05:10:57;2.45;;;0.55;;
22024;SDS011;11176;51.448;6.650;2022-12-29T05:13:24;1.67;;;0.40;;
22024;SDS011;11176;51.448;6.650;2022-12-29T05:15:52;1.65;;;0.40;;
22024;SDS011;11176;51.448;6.650;2022-12-29T05:18:21;3.05;;;0.70;;
22024;SDS011;11176;51.448;6.650;2022-12-29T05:20:48;2.42;;;0.50;;
22024;SDS011;11176;51.448;6.650;2022-12-29T05:23:17;2.00;;;0.60;;
22024;SDS011;11176;51.448;6.650;2022-12-29T05:25:48;1.92;;;0.70;;
22024;SDS011;11176;51.448;6.650;2022-12-29T05:28:35;1.40;;;0.60;;
22024;SDS011;11176;51.448;6.650;2022-12-29T05:31:10;2.58;;;0.80;;
22024;SDS011;11176;51.448;6.650;2022-12-29T05:33:37;5.25;;;0.85;;
22024;SDS011;11176;51.448;6.650;2022-12-29T05:36:05;2.05;;;0.60;;
22024;SDS011;11176;51.448;6.650;2022-12-29T05:38:35;2.78;;;0.60;;
22024;SDS011;11176;51.448;6.650;2022-12-29T05:41:01;2.33;;;0.70;;
22024;SDS011;11176;51.448;6.650;2022-12-29T05:43:47;2.92;;;0.70;;
22024;SDS011;11176;51.448;6.650;2022-12-29T05:46:28;4.70;;;0.70;;
22024;SDS011;11176;51.448;6.650;2022-12-29T05:49:30;3.22;;;0.80;;
22024;SDS011;11176;51.448;6.650;2022-12-29T05:52:08;3.42;;;0.65;;
22024;SDS011;11176;51.448;6.650;2022-12-29T05:54:34;3.30;;;0.88;;
22024;SDS011;11176;51.448;6.650;2022-12-29T05:57:06;1.52;;;0.55;;
22024;SDS011;11176;51.448;6.650;2022-12-29T05:59:33;1.85;;;0.60;;
22024;SDS011;11176;51.448;6.650;2022-12-29T06:02:00;3.47;;;0.70;;
22024;SDS011;11176;51.448;6.650;2022-12-29T06:04:27;3.33;;;0.70;;
22024;SDS011;11176;51.448;6.650;2022-12-29T06:06:54;1.40;;;0.50;;
22024;SDS011;11176;51.448;6.650;2022-12-29T06:09:30;3.80;;;0.70;;
22024;SDS011;11176;51.448;6.650;2022-12-29T06:11:56;1.40;;;0.50;;
22024;SDS011;11176;51.448;6.650;2022-12-29T06:14:24;2.85;;;0.70;;
22024;SDS011;11176;51.448;6.650;2022-12-29T06:16:50;2.58;;;0.65;;
22024;SDS011;11176;51.448;6.650;2022-12-29T06:19:17;5.07;;;0.68;;
22024;SDS011;11176;51.448;6.650;2022-12-29T06:21:43;3.55;;;0.70;;
22024;SDS011;11176;51.448;6.650;2022-12-29T06:24:10;2.83;;;0.57;;
22024;SDS011;11176;51.448;6.650;2022-12-29T06:26:37;2.10;;;0.68;;
22024;SDS011;11176;51.448;6.650;2022-12-29T06:29:03;4.88;;;0.80;;
22024;SDS011;11176;51.448;6.650;2022-12-29T06:31:31;2.47;;;0.60;;
22024;SDS011;11176;51.448;6.650;2022-12-29T06:33:58;1.67;;;0.70;;
22024;SDS011;11176;51.448;6.650;2022-12-29T06:36:33;3.90;;;0.98;;
22024;SDS011;11176;51.448;6.650;2022-12-29T06:38:59;3.65;;;1.10;;
22024;SDS011;11176;51.448;6.650;2022-12-29T06:41:26;3.22;;;0.70;;
22024;SDS011;11176;51.448;6.650;2022-12-29T06:44:24;4.97;;;0.98;;
22024;SDS011;11176;51.448;6.650;2022-12-29T06:47:00;3.20;;;0.60;;
22024;SDS011;11176;51.448;6.650;2022-12-29T06:49:26;1.95;;;0.63;;
22024;SDS011;11176;51.448;6.650;2022-12-29T06:51:52;4.07;;;0.80;;
22024;SDS011;11176;51.448;6.650;2022-12-29T06:54:19;4.07;;;0.80;;
22024;SDS011;11176;51.448;6.650;2022-12-29T06:56:45;2.25;;;0.50;;
22024;SDS011;11176;51.448;6.650;2022-12-29T06:59:12;3.28;;;0.75;;
22024;SDS011;11176;51.448;6.650;2022-12-29T07:01:39;2.75;;;0.90;;
22024;SDS011;11176;51.448;6.650;2022-12-29T07:04:06;3.13;;;0.93;;
22024;SDS011;11176;51.448;6.650;2022-12-29T07:06:32;3.13;;;0.82;;
22024;SDS011;11176;51.448;6.650;2022-12-29T07:08:58;5.32;;;0.70;;
22024;SDS011;11176;51.448;6.650;2022-12-29T07:11:25;3.40;;;0.82;;
22024;SDS011;11176;51.448;6.650;2022-12-29T07:13:51;3.85;;;0.85;;
22024;SDS011;11176;51.448;6.650;2022-12-29T07:16:18;3.65;;;0.70;;
22024;SDS011;11176;51.448;6.650;2022-12-29T07:18:45;3.78;;;0.85;;
22024;SDS011;11176;51.448;6.650;2022-12-29T07:21:11;4.90;;;0.90;;
22024;SDS011;11176;51.448;6.650;2022-12-29T07:23:38;4.50;;;0.75;;
22024;SDS011;11176;51.448;6.650;2022-12-29T07:26:05;4.13;;;0.80;;
22024;SDS011;11176;51.448;6.650;2022-12-29T07:28:36;4.78;;;0.98;;
22024;SDS011;11176;51.448;6.650;2022-12-29T07:31:04;4.45;;;0.80;;
22024;SDS011;11176;51.448;6.650;2022-12-29T07:33:32;4.65;;;1.02;;
22024;SDS011;11176;51.448;6.650;2022-12-29T07:35:59;4.75;;;0.90;;
22024;SDS011;11176;51.448;6.650;2022-12-29T07:38:26;4.30;;;1.30;;
22024;SDS011;11176;51.448;6.650;2022-12-29T07:40:56;4.63;;;0.90;;
22024;SDS011;11176;51.448;6.650;2022-12-29T07:43:23;5.25;;;0.80;;
22024;SDS011;11176;51.448;6.650;2022-12-29T07:46:10;5.13;;;0.85;;
22024;SDS011;11176;51.448;6.650;2022-12-29T07:48:56;4.82;;;1.10;;
22024;SDS011;11176;51.448;6.650;2022-12-29T07:51:23;6.35;;;1.17;;
22024;SDS011;11176;51.448;6.650;2022-12-29T07:53:49;4.78;;;1.08;;
22024;SDS011;11176;51.448;6.650;2022-12-29T07:56:15;4.45;;;1.17;;
22024;SDS011;11176;51.448;6.650;2022-12-29T07:58:42;9.05;;;1.75;;
22024;SDS011;11176;51.448;6.650;2022-12-29T08:01:08;5.25;;;1.10;;
22024;SDS011;11176;51.448;6.650;2022-12-29T08:03:35;6.35;;;1.20;;
22024;SDS011;11176;51.448;6.650;2022-12-29T08:06:02;4.18;;;1.10;;
22024;SDS011;11176;51.448;6.650;2022-12-29T08:08:29;6.03;;;1.35;;
22024;SDS011;11176;51.448;6.650;2022-12-29T08:10:55;4.25;;;1.33;;
22024;SDS011;11176;51.448;6.650;2022-12-29T08:13:21;6.45;;;1.60;;
22024;SDS011;11176;51.448;6.650;2022-12-29T08:15:49;6.00;;;1.35;;
22024;SDS011;11176;51.448;6.650;2022-12-29T08:18:15;3.90;;;1.30;;
22024;SDS011;11176;51.448;6.650;2022-12-29T08:20:42;5.63;;;0.95;;
22024;SDS011;11176;51.448;6.650;2022-12-29T08:23:08;5.40;;;0.98;;
22024;SDS011;11176;51.448;6.650;2022-12-29T08:25:34;4.72;;;1.30;;
22024;SDS011;11176;51.448;6.650;2022-12-29T08:28:01;6.30;;;1.40;;
22024;SDS011;11176;51.448;6.650;2022-12-29T08:30:27;5.88;;;1.38;;
22024;SDS011;11176;51.448;6.650;2022-12-29T08:32:54;7.10;;;1.42;;
22024;SDS011;11176;51.448;6.650;2022-12-29T08:35:20;6.13;;;1.13;;
22024;SDS011;11176;51.448;6.650;2022-12-29T08:37:47;5.85;;;1.25;;
22024;SDS011;11176;51.448;6.650;2022-12-29T08:40:14;4.57;;;1.42;;
22024;SDS011;11176;51.448;6.650;2022-12-29T08:42:40;6.82;;;1.52;;
22024;SDS011;11176;51.448;6.650;2022-12-29T08:45:07;8.75;;;1.40;;
22024;SDS011;11176;51.448;6.650;2022-12-29T08:47:34;5.60;;;1.20;;
22024;SDS011;11176;51.448;6.650;2022-12-29T08:50:01;7.80;;;1.55;;
22024;SDS011;11176;51.448;6.650;2022-12-29T08:52:28;6.90;;;1.30;;
22024;SDS011;11176;51.448;6.650;2022-12-29T08:54:54;6.35;;;1.13;;
22024;SDS011;11176;51.448;6.650;2022-12-29T08:57:20;4.57;;;1.10;;
22024;SDS011;11176;51.448;6.650;2022-12-29T09:00:02;6.78;;;1.40;;
22024;SDS011;11176;51.448;6.650;2022-12-29T09:02:29;7.90;;;1.35;;
22024;SDS011;11176;51.448;6.650;2022-12-29T09:04:56;3.13;;;1.10;;
22024;SDS011;11176;51.448;6.650;2022-12-29T09:07:23;8.27;;;1.70;;
22024;SDS011;11176;51.448;6.650;2022-12-29T09:09:49;7.78;;;1.40;;
22024;SDS011;11176;51.448;6.650;2022-12-29T09:12:17;4.97;;;1.33;;
22024;SDS011;11176;51.448;6.650;2022-12-29T09:14:45;10.18;;;1.98;;
22024;SDS011;11176;51.448;6.650;2022-12-29T09:17:12;6.82;;;1.60;;
22024;SDS011;11176;51.448;6.650;2022-12-29T09:19:57;7.68;;;1.48;;
22024;SDS011;11176;51.448;6.650;2022-12-29T09:22:24;4.85;;;1.38;;
22024;SDS011;11176;51.448;6.650;2022-12-29T09:24:51;7.90;;;1.92;;
22024;SDS011;11176;51.448;6.650;2022-12-29T09:27:17;6.43;;;1.33;;
22024;SDS011;11176;51.448;6.650;2022-12-29T09:29:44;6.53;;;2.03;;
22024;SDS011;11176;51.448;6.650;2022-12-29T09:32:10;8.18;;;2.10;;
22024;SDS011;11176;51.448;6.650;2022-12-29T09:34:43;6.40;;;1.60;;
22024;SDS011;11176;51.448;6.650;2022-12-29T09:37:10;6.75;;;1.83;;
22024;SDS011;11176;51.448;6.650;2022-12-29T09:39:36;6.82;;;1.75;;
22024;SDS011;11176;51.448;6.650;2022-12-29T09:47:10;8.38;;;1.75;;
22024;SDS011;11176;51.448;6.650;2022-12-29T09:49:43;4.57;;;1.20;;
22024;SDS011;11176;51.448;6.650;2022-12-29T09:52:16;5.10;;;1.40;;
22024;SDS011;11176;51.448;6.650;2022-12-29T09:54:54;13.10;;;3.55;;
22024;SDS011;11176;51.448;6.650;2022-12-29T10:00:16;6.55;;;2.47;;
22024;SDS011;11176;51.448;6.650;2022-12-29T10:08:41;8.20;;;1.55;;
22024;SDS011;11176;51.448;6.650;2022-12-29T10:14:16;6.60;;;1.35;;
22024;SDS011;11176;51.448;6.650;2022-12-29T10:17:01;5.53;;;1.52;;
22024;SDS011;11176;51.448;6.650;2022-12-29T10:24:55;12.60;;;4.22;;
22024;SDS011;11176;51.448;6.650;2022-12-29T10:27:22;8.15;;;2.28;;
22024;SDS011;11176;51.448;6.650;2022-12-29T10:29:57;19.63;;;6.25;;
22024;SDS011;11176;51.448;6.650;2022-12-29T10:32:38;16.60;;;5.53;;
22024;SDS011;11176;51.448;6.650;2022-12-29T10:35:22;8.00;;;1.95;;
22024;SDS011;11176;51.448;6.650;2022-12-29T10:43:15;8.50;;;2.13;;
22024;SDS011;11176;51.448;6.650;2022-12-29T10:45:50;5.63;;;1.40;;
22024;SDS011;11176;51.448;6.650;2022-12-29T10:48:21;7.53;;;1.95;;
22024;SDS011;11176;51.448;6.650;2022-12-29T10:50:57;8.13;;;1.83;;
22024;SDS011;11176;51.448;6.650;2022-12-29T10:53:30;6.38;;;1.40;;
22024;SDS011;11176;51.448;6.650;2022-12-29T10:56:04;10.45;;;2.20;;
22024;SDS011;11176;51.448;6.650;2022-12-29T10:58:42;7.90;;;1.95;;
22024;SDS011;11176;51.448;6.650;2022-12-29T11:01:15;6.10;;;1.52;;
22024;SDS011;11176;51.448;6.650;2022-12-29T11:06:37;7.85;;;2.40;;
22024;SDS011;11176;51.448;6.650;2022-12-29T11:09:12;11.63;;;2.28;;
22024;SDS011;11176;51.448;6.650;2022-12-29T11:11:42;7.32;;;2.08;;
22024;SDS011;11176;51.448;6.650;2022-12-29T11:16:44;11.35;;;2.33;;
22024;SDS011;11176;51.448;6.650;2022-12-29T11:19:23;8.93;;;2.15;;
22024;SDS011;11176;51.448;6.650;2022-12-29T11:21:51;10.25;;;2.40;;
22024;SDS011;11176;51.448;6.650;2022-12-29T11:24:22;7.70;;;1.80;;
22024;SDS011;11176;51.448;6.650;2022-12-29T11:26:54;8.45;;;2.00;;
22024;SDS011;11176;51.448;6.650;2022-12-29T11:29:38;7.40;;;1.90;;
22024;SDS011;11176;51.448;6.650;2022-12-29T11:32:11;9.18;;;2.05;;
22024;SDS011;11176;51.448;6.650;2022-12-29T11:34:49;6.85;;;1.80;;
22024;SDS011;11176;51.448;6.650;2022-12-29T11:37:22;7.00;;;1.70;;
22024;SDS011;11176;51.448;6.650;2022-12-29T11:39:59;6.18;;;1.60;;
22024;SDS011;11176;51.448;6.650;2022-12-29T11:42:35;10.23;;;1.73;;
22024;SDS011;11176;51.448;6.650;2022-12-29T11:47:58;11.10;;;2.30;;
22024;SDS011;11176;51.448;6.650;2022-12-29T11:50:28;9.23;;;1.52;;
22024;SDS011;11176;51.448;6.650;2022-12-29T11:52:57;8.35;;;1.73;;
22024;SDS011;11176;51.448;6.650;2022-12-29T11:55:26;6.72;;;1.90;;
22024;SDS011;11176;51.448;6.650;2022-12-29T11:57:54;9.85;;;2.03;;
22024;SDS011;11176;51.448;6.650;2022-12-29T12:00:23;8.90;;;1.75;;
22024;SDS011;11176;51.448;6.650;2022-12-29T12:02:58;8.25;;;1.85;;
22024;SDS011;11176;51.448;6.650;2022-12-29T12:05:37;7.80;;;1.90;;
22024;SDS011;11176;51.448;6.650;2022-12-29T12:08:21;6.85;;;1.42;;
22024;SDS011;11176;51.448;6.650;2022-12-29T12:11:10;5.93;;;1.55;;
22024;SDS011;11176;51.448;6.650;2022-12-29T12:13:51;8.63;;;1.88;;
22024;SDS011;11176;51.448;6.650;2022-12-29T12:16:21;9.43;;;1.90;;
22024;SDS011;11176;51.448;6.650;2022-12-29T12:21:47;6.72;;;1.40;;
22024;SDS011;11176;51.448;6.650;2022-12-29T12:24:27;6.70;;;1.50;;
22024;SDS011;11176;51.448;6.650;2022-12-29T12:35:16;9.90;;;2.03;;
22024;SDS011;11176;51.448;6.650;2022-12-29T12:40:58;6.53;;;1.55;;
22024;SDS011;11176;51.448;6.650;2022-12-29T12:43:35;9.10;;;1.90;;
22024;SDS011;11176;51.448;6.650;2022-12-29T12:46:24;7.68;;;1.95;;
22024;SDS011;11176;51.448;6.650;2022-12-29T12:57:49;7.28;;;1.73;;
22024;SDS011;11176;51.448;6.650;2022-12-29T13:00:25;6.23;;;1.60;;
22024;SDS011;11176;51.448;6.650;2022-12-29T13:03:13;9.75;;;1.63;;
22024;SDS011;11176;51.448;6.650;2022-12-29T13:06:07;8.00;;;1.63;;
22024;SDS011;11176;51.448;6.650;2022-12-29T13:22:37;10.50;;;2.03;;
22024;SDS011;11176;51.448;6.650;2022-12-29T13:25:22;7.28;;;2.08;;
22024;SDS011;11176;51.448;6.650;2022-12-29T13:28:00;9.93;;;2.00;;
22024;SDS011;11176;51.448;6.650;2022-12-29T13:35:59;8.77;;;1.73;;
22024;SDS011;11176;51.448;6.650;2022-12-29T13:38:32;7.88;;;1.60;;
22024;SDS011;11176;51.448;6.650;2022-12-29T13:41:07;4.10;;;1.40;;
22024;SDS011;11176;51.448;6.650;2022-12-29T13:43:39;6.32;;;1.40;;
22024;SDS011;11176;51.448;6.650;2022-12-29T13:46:19;7.45;;;1.83;;
22024;SDS011;11176;51.448;6.650;2022-12-29T13:48:51;8.77;;;1.73;;
22024;SDS011;11176;51.448;6.650;2022-12-29T13:51:21;11.88;;;2.10;;
22024;SDS011;11176;51.448;6.650;2022-12-29T13:56:52;5.03;;;1.63;;
22024;SDS011;11176;51.448;6.650;2022-12-29T13:59:38;9.35;;;2.08;;
22024;SDS011;11176;51.448;6.650;2022-12-29T14:02:15;9.20;;;1.70;;
22024;SDS011;11176;51.448;6.650;2022-12-29T14:04:57;8.90;;;2.13;;
22024;SDS011;11176;51.448;6.650;2022-12-29T14:07:44;7.38;;;2.03;;
22024;SDS011;11176;51.448;6.650;2022-12-29T14:10:45;10.48;;;1.83;;
22024;SDS011;11176;51.448;6.650;2022-12-29T14:13:12;9.00;;;1.50;;
22024;SDS011;11176;51.448;6.650;2022-12-29T14:15:44;6.88;;;2.05;;
22024;SDS011;11176;51.448;6.650;2022-12-29T14:18:17;4.20;;;1.50;;
22024;SDS011;11176;51.448;6.650;2022-12-29T14:23:42;8.20;;;1.40;;
22024;SDS011;11176;51.448;6.650;2022-12-29T14:26:41;8.23;;;2.08;;
22024;SDS011;11176;51.448;6.650;2022-12-29T14:31:55;12.50;;;2.10;;
22024;SDS011;11176;51.448;6.650;2022-12-29T14:44:31;7.15;;;1.42;;
22024;SDS011;11176;51.448;6.650;2022-12-29T14:47:00;6.25;;;1.35;;
22024;SDS011;11176;51.448;6.650;2022-12-29T14:49:33;7.57;;;1.42;;
22024;SDS011;11176;51.448;6.650;2022-12-29T14:52:24;9.32;;;1.60;;
22024;SDS011;11176;51.448;6.650;2022-12-29T14:54:54;4.88;;;1.67;;
22024;SDS011;11176;51.448;6.650;2022-12-29T14:59:58;7.10;;;1.48;;
22024;SDS011;11176;51.448;6.650;2022-12-29T15:02:32;3.80;;;1.10;;
22024;SDS011;11176;51.448;6.650;2022-12-29T15:05:04;8.30;;;1.40;;
22024;SDS011;11176;51.448;6.650;2022-12-29T15:07:32;4.32;;;1.25;;
22024;SDS011;11176;51.448;6.650;2022-12-29T15:10:04;6.13;;;1.40;;
22024;SDS011;11176;51.448;6.650;2022-12-29T15:12:39;7.63;;;1.42;;
22024;SDS011;11176;51.448;6.650;2022-12-29T15:15:25;8.82;;;1.50;;
22024;SDS011;11176;51.448;6.650;2022-12-29T15:17:54;11.05;;;2.10;;
22024;SDS011;11176;51.448;6.650;2022-12-29T15:20:30;6.18;;;1.38;;
22024;SDS011;11176;51.448;6.650;2022-12-29T15:22:58;11.73;;;1.90;;
22024;SDS011;11176;51.448;6.650;2022-12-29T15:25:28;7.10;;;1.45;;
22024;SDS011;11176;51.448;6.650;2022-12-29T15:28:00;6.95;;;1.35;;
22024;SDS011;11176;51.448;6.650;2022-12-29T15:30:32;10.75;;;1.75;;
22024;SDS011;11176;51.448;6.650;2022-12-29T15:32:59;7.05;;;1.50;;
22024;SDS011;11176;51.448;6.650;2022-12-29T15:35:32;6.35;;;1.40;;
22024;SDS011;11176;51.448;6.650;2022-12-29T15:38:13;10.10;;;1.80;;
22024;SDS011;11176;51.448;6.650;2022-12-29T15:40:45;6.82;;;1.73;;
22024;SDS011;11176;51.448;6.650;2022-12-29T15:46:12;10.20;;;1.92;;
22024;SDS011;11176;51.448;6.650;2022-12-29T15:48:39;9.23;;;1.50;;
22024;SDS011;11176;51.448;6.650;2022-12-29T15:51:24;6.65;;;1.35;;
22024;SDS011;11176;51.448;6.650;2022-12-29T15:53:59;6.93;;;1.63;;
22024;SDS011;11176;51.448;6.650;2022-12-29T15:56:30;8.00;;;1.58;;
22024;SDS011;11176;51.448;6.650;2022-12-29T15:58:58;9.38;;;2.03;;
22024;SDS011;11176;51.448;6.650;2022-12-29T16:01:33;5.55;;;1.35;;
22024;SDS011;11176;51.448;6.650;2022-12-29T16:04:05;7.07;;;1.55;;
22024;SDS011;11176;51.448;6.650;2022-12-29T16:06:34;8.05;;;1.30;;
22024;SDS011;11176;51.448;6.650;2022-12-29T16:09:14;8.93;;;1.80;;
22024;SDS011;11176;51.448;6.650;2022-12-29T16:14:14;8.60;;;1.52;;
22024;SDS011;11176;51.448;6.650;2022-12-29T16:16:45;5.97;;;1.40;;
22024;SDS011;11176;51.448;6.650;2022-12-29T16:19:17;4.97;;;1.67;;
22024;SDS011;11176;51.448;6.650;2022-12-29T16:21:47;6.85;;;1.40;;
22024;SDS011;11176;51.448;6.650;2022-12-29T16:24:15;8.10;;;2.75;;
22024;SDS011;11176;51.448;6.650;2022-12-29T16:26:45;7.45;;;1.83;;
22024;SDS011;11176;51.448;6.650;2022-12-29T16:29:14;6.15;;;1.70;;
22024;SDS011;11176;51.448;6.650;2022-12-29T16:34:24;13.30;;;4.63;;
22024;SDS011;11176;51.448;6.650;2022-12-29T16:36:58;8.77;;;2.60;;
22024;SDS011;11176;51.448;6.650;2022-12-29T16:39:48;9.95;;;2.47;;
22024;SDS011;11176;51.448;6.650;2022-12-29T16:47:46;4.93;;;1.25;;
22024;SDS011;11176;51.448;6.650;2022-12-29T16:50:18;4.15;;;0.95;;
22024;SDS011;11176;51.448;6.650;2022-12-29T16:52:53;5.97;;;1.90;;
22024;SDS011;11176;51.448;6.650;2022-12-29T16:55:20;7.05;;;1.35;;
22024;SDS011;11176;51.448;6.650;2022-12-29T16:57:47;5.43;;;1.10;;
22024;SDS011;11176;51.448;6.650;2022-12-29T17:00:19;4.43;;;1.30;;
22024;SDS011;11176;51.448;6.650;2022-12-29T17:02:47;3.58;;;0.90;;
22024;SDS011;11176;51.448;6.650;2022-12-29T17:05:16;2.10;;;0.60;;
22024;SDS011;11176;51.448;6.650;2022-12-29T17:07:43;5.15;;;1.27;;
22024;SDS011;11176;51.448;6.650;2022-12-29T17:10:11;4.43;;;0.88;;
22024;SDS011;11176;51.448;6.650;2022-12-29T17:12:40;3.70;;;1.10;;
22024;SDS011;11176;51.448;6.650;2022-12-29T17:15:12;3.40;;;1.05;;
22024;SDS011;11176;51.448;6.650;2022-12-29T17:17:43;6.72;;;1.08;;
22024;SDS011;11176;51.448;6.650;2022-12-29T17:20:16;2.22;;;0.80;;
22024;SDS011;11176;51.448;6.650;2022-12-29T17:22:43;6.05;;;0.90;;
22024;SDS011;11176;51.448;6.650;2022-12-29T17:25:12;3.67;;;1.05;;
22024;SDS011;11176;51.448;6.650;2022-12-29T17:27:42;1.70;;;0.80;;
22024;SDS011;11176;51.448;6.650;2022-12-29T17:30:11;2.72;;;1.10;;
22024;SDS011;11176;51.448;6.650;2022-12-29T17:32:43;3.13;;;1.10;;
22024;SDS011;11176;51.448;6.650;2022-12-29T17:35:15;10.77;;;1.55;;
22024;SDS011;11176;51.448;6.650;2022-12-29T17:37:42;3.10;;;1.10;;
22024;SDS011;11176;51.448;6.650;2022-12-29T17:40:12;3.88;;;1.30;;
22024;SDS011;11176;51.448;6.650;2022-12-29T17:42:44;4.22;;;1.00;;
22024;SDS011;11176;51.448;6.650;2022-12-29T17:45:22;7.03;;;1.27;;
22024;SDS011;11176;51.448;6.650;2022-12-29T17:47:51;5.85;;;1.58;;
22024;SDS011;11176;51.448;6.650;2022-12-29T17:50:19;5.45;;;1.70;;
22024;SDS011;11176;51.448;6.650;2022-12-29T17:52:50;7.97;;;1.98;;